sensor_id;sensor_type;location;lat;lon;timestamp;temperature;humidity
29341;DHT22;16337;59.536;13.468;2022-07-06T00:00:33;11.80;99.90
29341;DHT22;16337;59.536;13.468;2022-07-06T00:02:59;11.80;99.90
29341;DHT22;16337;59.536;13.468;2022-07-06T00:05:25;11.80;99.90
29341;DHT22;16337;59.536;13.468;2022-07-06T00:07:51;11.80;99.90
29341;DHT22;16337;59.536;13.468;2022-07-06T00:10:17;11.80;99.90
29341;DHT22;16337;59.536;13.468;2022-07-06T00:12:42;11.90;99.90
29341;DHT22;16337;59.536;13.468;2022-07-06T00:15:08;11.90;99.90
29341;DHT22;16337;59.536;13.468;2022-07-06T00:17:34;11.90;99.90
29341;DHT22;16337;59.536;13.468;2022-07-06T00:20:00;11.90;99.90
29341;DHT22;16337;59.536;13.468;2022-07-06T00:22:26;11.80;99.90
29341;DHT22;16337;59.536;13.468;2022-07-06T00:24:51;11.90;99.90
29341;DHT22;16337;59.536;13.468;2022-07-06T00:27:17;11.90;99.90
29341;DHT22;16337;59.536;13.468;2022-07-06T00:29:43;11.90;99.90
29341;DHT22;16337;59.536;13.468;2022-07-06T00:32:10;11.80;99.90
29341;DHT22;16337;59.536;13.468;2022-07-06T00:34:37;11.80;99.90
29341;DHT22;16337;59.536;13.468;2022-07-06T00:37:05;11.80;99.90
29341;DHT22;16337;59.536;13.468;2022-07-06T00:39:31;11.80;99.90
29341;DHT22;16337;59.536;13.468;2022-07-06T00:41:57;11.80;99.90
29341;DHT22;16337;59.536;13.468;2022-07-06T00:44:23;11.80;99.90
29341;DHT22;16337;59.536;13.468;2022-07-06T00:46:48;11.80;99.90
29341;DHT22;16337;59.536;13.468;2022-07-06T00:49:14;11.70;99.90
29341;DHT22;16337;59.536;13.468;2022-07-06T00:52:00;11.80;99.90
29341;DHT22;16337;59.536;13.468;2022-07-06T00:54:31;11.80;99.90
29341;DHT22;16337;59.536;13.468;2022-07-06T00:56:57;11.70;99.90
29341;DHT22;16337;59.536;13.468;2022-07-06T00:59:24;11.70;99.90
29341;DHT22;16337;59.536;13.468;2022-07-06T01:01:50;11.70;99.90
29341;DHT22;16337;59.536;13.468;2022-07-06T01:04:16;11.80;99.90
29341;DHT22;16337;59.536;13.468;2022-07-06T01:06:44;11.70;99.90
29341;DHT22;16337;59.536;13.468;2022-07-06T01:09:10;11.80;99.90
29341;DHT22;16337;59.536;13.468;2022-07-06T01:11:36;11.80;99.90
29341;DHT22;16337;59.536;13.468;2022-07-06T01:14:02;11.70;99.90
29341;DHT22;16337;59.536;13.468;2022-07-06T01:16:28;11.70;99.90
29341;DHT22;16337;59.536;13.468;2022-07-06T01:18:53;11.70;99.90
29341;DHT22;16337;59.536;13.468;2022-07-06T01:21:19;11.80;99.90
29341;DHT22;16337;59.536;13.468;2022-07-06T01:23:47;11.70;99.90
29341;DHT22;16337;59.536;13.468;2022-07-06T01:26:17;11.70;99.90
29341;DHT22;16337;59.536;13.468;2022-07-06T01:28:45;11.70;99.90
29341;DHT22;16337;59.536;13.468;2022-07-06T01:31:28;11.70;99.90
29341;DHT22;16337;59.536;13.468;2022-07-06T01:33:56;11.70;99.90
29341;DHT22;16337;59.536;13.468;2022-07-06T01:36:22;11.70;99.90
29341;DHT22;16337;59.536;13.468;2022-07-06T01:38:49;11.70;99.90
29341;DHT22;16337;59.536;13.468;2022-07-06T01:41:15;11.70;99.90
29341;DHT22;16337;59.536;13.468;2022-07-06T01:43:41;11.70;99.90
29341;DHT22;16337;59.536;13.468;2022-07-06T01:46:07;11.70;99.90
29341;DHT22;16337;59.536;13.468;2022-07-06T01:48:33;11.70;99.90
29341;DHT22;16337;59.536;13.468;2022-07-06T01:50:58;11.70;99.90
29341;DHT22;16337;59.536;13.468;2022-07-06T01:53:24;11.70;99.90
29341;DHT22;16337;59.536;13.468;2022-07-06T01:55:50;11.80;99.90
29341;DHT22;16337;59.536;13.468;2022-07-06T01:58:15;11.80;99.90
29341;DHT22;16337;59.536;13.468;2022-07-06T02:00:41;11.80;99.90
29341;DHT22;16337;59.536;13.468;2022-07-06T02:03:07;11.80;99.90
29341;DHT22;16337;59.536;13.468;2022-07-06T02:05:32;11.80;99.90
29341;DHT22;16337;59.536;13.468;2022-07-06T02:07:58;11.90;99.90
29341;DHT22;16337;59.536;13.468;2022-07-06T02:10:24;11.80;99.90
29341;DHT22;16337;59.536;13.468;2022-07-06T02:12:50;11.80;99.90
29341;DHT22;16337;59.536;13.468;2022-07-06T02:15:16;11.80;99.90
29341;DHT22;16337;59.536;13.468;2022-07-06T02:17:41;11.90;99.90
29341;DHT22;16337;59.536;13.468;2022-07-06T02:20:08;11.90;99.90
29341;DHT22;16337;59.536;13.468;2022-07-06T02:22:33;11.90;99.90
29341;DHT22;16337;59.536;13.468;2022-07-06T02:24:59;11.90;99.90
29341;DHT22;16337;59.536;13.468;2022-07-06T02:27:25;11.80;99.90
29341;DHT22;16337;59.536;13.468;2022-07-06T02:29:51;11.90;99.90
29341;DHT22;16337;59.536;13.468;2022-07-06T02:32:17;11.90;99.90
29341;DHT22;16337;59.536;13.468;2022-07-06T02:34:43;11.90;99.90
29341;DHT22;16337;59.536;13.468;2022-07-06T02:37:09;11.90;99.90
29341;DHT22;16337;59.536;13.468;2022-07-06T02:39:34;11.90;99.90
29341;DHT22;16337;59.536;13.468;2022-07-06T02:42:00;11.90;99.90
29341;DHT22;16337;59.536;13.468;2022-07-06T02:44:26;12.00;99.90
29341;DHT22;16337;59.536;13.468;2022-07-06T02:46:51;12.00;99.90
29341;DHT22;16337;59.536;13.468;2022-07-06T02:49:17;12.00;99.90
29341;DHT22;16337;59.536;13.468;2022-07-06T02:51:43;12.00;99.90
29341;DHT22;16337;59.536;13.468;2022-07-06T02:54:08;12.00;99.90
29341;DHT22;16337;59.536;13.468;2022-07-06T02:56:34;12.00;99.90
29341;DHT22;16337;59.536;13.468;2022-07-06T02:59:00;12.00;99.90
29341;DHT22;16337;59.536;13.468;2022-07-06T03:01:26;12.00;99.90
29341;DHT22;16337;59.536;13.468;2022-07-06T03:03:51;12.10;99.90
29341;DHT22;16337;59.536;13.468;2022-07-06T03:06:17;12.10;99.90
29341;DHT22;16337;59.536;13.468;2022-07-06T03:08:46;12.10;99.90
29341;DHT22;16337;59.536;13.468;2022-07-06T03:11:11;12.10;99.90
29341;DHT22;16337;59.536;13.468;2022-07-06T03:13:37;12.10;99.90
29341;DHT22;16337;59.536;13.468;2022-07-06T03:16:03;12.20;99.90
29341;DHT22;16337;59.536;13.468;2022-07-06T03:18:29;12.20;99.90
29341;DHT22;16337;59.536;13.468;2022-07-06T03:20:55;12.20;99.90
29341;DHT22;16337;59.536;13.468;2022-07-06T03:23:20;12.20;99.90
29341;DHT22;16337;59.536;13.468;2022-07-06T03:25:46;12.30;99.90
29341;DHT22;16337;59.536;13.468;2022-07-06T03:28:12;12.40;99.90
29341;DHT22;16337;59.536;13.468;2022-07-06T03:30:38;12.40;99.90
29341;DHT22;16337;59.536;13.468;2022-07-06T03:33:03;12.40;99.90
29341;DHT22;16337;59.536;13.468;2022-07-06T03:35:29;12.40;99.90
29341;DHT22;16337;59.536;13.468;2022-07-06T03:37:55;12.50;99.90
29341;DHT22;16337;59.536;13.468;2022-07-06T03:40:20;12.60;99.90
29341;DHT22;16337;59.536;13.468;2022-07-06T03:42:46;12.60;99.90
29341;DHT22;16337;59.536;13.468;2022-07-06T03:45:12;12.70;99.90
29341;DHT22;16337;59.536;13.468;2022-07-06T03:47:38;12.80;99.90
29341;DHT22;16337;59.536;13.468;2022-07-06T03:50:04;12.90;99.90
29341;DHT22;16337;59.536;13.468;2022-07-06T03:52:30;12.90;99.90
29341;DHT22;16337;59.536;13.468;2022-07-06T03:54:56;13.00;99.90
29341;DHT22;16337;59.536;13.468;2022-07-06T03:57:22;13.10;99.90
29341;DHT22;16337;59.536;13.468;2022-07-06T03:59:48;13.20;99.90
29341;DHT22;16337;59.536;13.468;2022-07-06T04:02:14;13.20;99.90
29341;DHT22;16337;59.536;13.468;2022-07-06T04:04:40;13.30;99.90
29341;DHT22;16337;59.536;13.468;2022-07-06T04:07:05;13.40;99.90
29341;DHT22;16337;59.536;13.468;2022-07-06T04:09:31;13.40;99.90
29341;DHT22;16337;59.536;13.468;2022-07-06T04:11:57;13.50;99.90
29341;DHT22;16337;59.536;13.468;2022-07-06T04:14:22;13.50;99.90
29341;DHT22;16337;59.536;13.468;2022-07-06T04:16:48;13.60;99.90
29341;DHT22;16337;59.536;13.468;2022-07-06T04:19:14;13.60;99.90
29341;DHT22;16337;59.536;13.468;2022-07-06T04:21:40;13.70;99.90
29341;DHT22;16337;59.536;13.468;2022-07-06T04:24:06;13.70;99.90
29341;DHT22;16337;59.536;13.468;2022-07-06T04:26:31;13.80;99.90
29341;DHT22;16337;59.536;13.468;2022-07-06T04:28:57;13.80;99.90
29341;DHT22;16337;59.536;13.468;2022-07-06T04:31:23;13.80;99.90
29341;DHT22;16337;59.536;13.468;2022-07-06T04:33:48;13.70;99.90
29341;DHT22;16337;59.536;13.468;2022-07-06T04:36:14;13.60;99.90
29341;DHT22;16337;59.536;13.468;2022-07-06T04:38:40;13.60;99.90
29341;DHT22;16337;59.536;13.468;2022-07-06T04:41:06;13.70;99.90
29341;DHT22;16337;59.536;13.468;2022-07-06T04:43:31;13.70;99.90
29341;DHT22;16337;59.536;13.468;2022-07-06T04:45:57;13.90;99.90
29341;DHT22;16337;59.536;13.468;2022-07-06T04:48:23;13.90;99.90
29341;DHT22;16337;59.536;13.468;2022-07-06T04:50:49;14.00;99.90
29341;DHT22;16337;59.536;13.468;2022-07-06T04:53:14;14.10;99.90
29341;DHT22;16337;59.536;13.468;2022-07-06T04:55:40;14.20;99.90
29341;DHT22;16337;59.536;13.468;2022-07-06T04:58:06;14.40;99.90
29341;DHT22;16337;59.536;13.468;2022-07-06T05:00:31;14.50;99.90
29341;DHT22;16337;59.536;13.468;2022-07-06T05:02:57;14.60;99.90
29341;DHT22;16337;59.536;13.468;2022-07-06T05:05:23;14.70;99.90
29341;DHT22;16337;59.536;13.468;2022-07-06T05:07:49;14.90;99.90
29341;DHT22;16337;59.536;13.468;2022-07-06T05:10:14;14.90;99.90
29341;DHT22;16337;59.536;13.468;2022-07-06T05:12:40;15.00;99.90
29341;DHT22;16337;59.536;13.468;2022-07-06T05:15:07;15.10;99.90
29341;DHT22;16337;59.536;13.468;2022-07-06T05:17:32;15.20;99.90
29341;DHT22;16337;59.536;13.468;2022-07-06T05:19:58;15.20;99.90
29341;DHT22;16337;59.536;13.468;2022-07-06T05:22:24;15.20;99.90
29341;DHT22;16337;59.536;13.468;2022-07-06T05:24:50;15.30;99.90
29341;DHT22;16337;59.536;13.468;2022-07-06T05:27:16;15.30;99.90
29341;DHT22;16337;59.536;13.468;2022-07-06T05:29:42;15.30;99.90
29341;DHT22;16337;59.536;13.468;2022-07-06T05:32:07;15.50;99.90
29341;DHT22;16337;59.536;13.468;2022-07-06T05:34:33;16.00;99.90
29341;DHT22;16337;59.536;13.468;2022-07-06T05:37:00;16.60;99.90
29341;DHT22;16337;59.536;13.468;2022-07-06T05:39:26;17.00;99.90
29341;DHT22;16337;59.536;13.468;2022-07-06T05:41:52;17.20;99.90
29341;DHT22;16337;59.536;13.468;2022-07-06T05:44:17;17.60;99.90
29341;DHT22;16337;59.536;13.468;2022-07-06T05:46:43;18.00;99.90
29341;DHT22;16337;59.536;13.468;2022-07-06T05:49:09;18.40;99.90
29341;DHT22;16337;59.536;13.468;2022-07-06T05:51:53;18.70;99.90
29341;DHT22;16337;59.536;13.468;2022-07-06T05:54:19;18.40;99.90
29341;DHT22;16337;59.536;13.468;2022-07-06T05:56:44;18.20;99.90
29341;DHT22;16337;59.536;13.468;2022-07-06T05:59:10;18.50;99.90
29341;DHT22;16337;59.536;13.468;2022-07-06T06:01:36;19.00;99.90
29341;DHT22;16337;59.536;13.468;2022-07-06T06:04:01;19.10;99.90
29341;DHT22;16337;59.536;13.468;2022-07-06T06:06:27;19.10;99.90
29341;DHT22;16337;59.536;13.468;2022-07-06T06:08:53;19.00;99.90
29341;DHT22;16337;59.536;13.468;2022-07-06T06:11:19;19.20;99.90
29341;DHT22;16337;59.536;13.468;2022-07-06T06:13:44;19.00;99.90
29341;DHT22;16337;59.536;13.468;2022-07-06T06:16:10;18.70;99.90
29341;DHT22;16337;59.536;13.468;2022-07-06T06:18:36;18.70;99.90
29341;DHT22;16337;59.536;13.468;2022-07-06T06:21:01;18.50;99.90
29341;DHT22;16337;59.536;13.468;2022-07-06T06:23:27;18.40;99.90
29341;DHT22;16337;59.536;13.468;2022-07-06T06:25:53;18.50;99.90
29341;DHT22;16337;59.536;13.468;2022-07-06T06:28:18;18.70;99.90
29341;DHT22;16337;59.536;13.468;2022-07-06T06:30:44;18.60;99.90
29341;DHT22;16337;59.536;13.468;2022-07-06T06:33:14;18.60;99.90
29341;DHT22;16337;59.536;13.468;2022-07-06T06:35:45;18.80;99.90
29341;DHT22;16337;59.536;13.468;2022-07-06T06:38:11;19.10;99.90
29341;DHT22;16337;59.536;13.468;2022-07-06T06:40:37;19.30;99.90
29341;DHT22;16337;59.536;13.468;2022-07-06T06:43:03;19.30;99.90
29341;DHT22;16337;59.536;13.468;2022-07-06T06:45:29;19.50;99.90
29341;DHT22;16337;59.536;13.468;2022-07-06T06:47:55;19.40;99.90
29341;DHT22;16337;59.536;13.468;2022-07-06T06:50:20;19.00;99.90
29341;DHT22;16337;59.536;13.468;2022-07-06T06:52:48;19.10;99.90
29341;DHT22;16337;59.536;13.468;2022-07-06T06:55:14;18.90;99.90
29341;DHT22;16337;59.536;13.468;2022-07-06T06:57:39;18.90;99.90
29341;DHT22;16337;59.536;13.468;2022-07-06T07:00:05;19.20;99.90
29341;DHT22;16337;59.536;13.468;2022-07-06T07:02:32;19.40;99.90
29341;DHT22;16337;59.536;13.468;2022-07-06T07:04:57;19.60;99.90
29341;DHT22;16337;59.536;13.468;2022-07-06T07:07:23;19.70;99.90
29341;DHT22;16337;59.536;13.468;2022-07-06T07:09:49;19.80;99.90
29341;DHT22;16337;59.536;13.468;2022-07-06T07:12:14;19.80;99.90
29341;DHT22;16337;59.536;13.468;2022-07-06T07:14:42;20.10;99.90
29341;DHT22;16337;59.536;13.468;2022-07-06T07:17:08;20.20;99.90
29341;DHT22;16337;59.536;13.468;2022-07-06T07:19:34;20.40;99.90
29341;DHT22;16337;59.536;13.468;2022-07-06T07:22:00;20.50;99.90
29341;DHT22;16337;59.536;13.468;2022-07-06T07:24:26;20.90;99.90
29341;DHT22;16337;59.536;13.468;2022-07-06T07:26:51;21.10;99.90
29341;DHT22;16337;59.536;13.468;2022-07-06T07:29:17;20.80;99.90
29341;DHT22;16337;59.536;13.468;2022-07-06T07:31:43;20.60;99.90
29341;DHT22;16337;59.536;13.468;2022-07-06T07:34:08;20.60;99.90
29341;DHT22;16337;59.536;13.468;2022-07-06T07:36:34;20.60;99.90
29341;DHT22;16337;59.536;13.468;2022-07-06T07:39:01;20.60;99.90
29341;DHT22;16337;59.536;13.468;2022-07-06T07:41:26;20.90;99.90
29341;DHT22;16337;59.536;13.468;2022-07-06T07:43:52;21.00;99.90
29341;DHT22;16337;59.536;13.468;2022-07-06T07:46:18;21.00;99.90
29341;DHT22;16337;59.536;13.468;2022-07-06T07:48:43;20.50;99.90
29341;DHT22;16337;59.536;13.468;2022-07-06T07:51:09;20.80;99.90
29341;DHT22;16337;59.536;13.468;2022-07-06T07:53:35;20.90;99.90
29341;DHT22;16337;59.536;13.468;2022-07-06T07:56:01;21.10;99.90
29341;DHT22;16337;59.536;13.468;2022-07-06T07:58:26;21.40;99.90
29341;DHT22;16337;59.536;13.468;2022-07-06T08:00:53;21.30;99.90
29341;DHT22;16337;59.536;13.468;2022-07-06T08:03:18;21.50;99.90
29341;DHT22;16337;59.536;13.468;2022-07-06T08:05:44;21.50;99.90
29341;DHT22;16337;59.536;13.468;2022-07-06T08:08:12;21.70;99.90
29341;DHT22;16337;59.536;13.468;2022-07-06T08:10:38;21.70;99.90
29341;DHT22;16337;59.536;13.468;2022-07-06T08:13:03;21.60;99.90
29341;DHT22;16337;59.536;13.468;2022-07-06T08:15:29;21.90;99.90
29341;DHT22;16337;59.536;13.468;2022-07-06T08:17:56;22.00;99.90
29341;DHT22;16337;59.536;13.468;2022-07-06T08:20:22;21.90;99.90
29341;DHT22;16337;59.536;13.468;2022-07-06T08:22:49;21.90;99.90
29341;DHT22;16337;59.536;13.468;2022-07-06T08:25:15;22.00;99.90
29341;DHT22;16337;59.536;13.468;2022-07-06T08:27:41;22.20;99.90
29341;DHT22;16337;59.536;13.468;2022-07-06T08:30:07;22.20;99.90
29341;DHT22;16337;59.536;13.468;2022-07-06T08:32:33;22.30;99.90
29341;DHT22;16337;59.536;13.468;2022-07-06T08:35:01;22.30;99.90
29341;DHT22;16337;59.536;13.468;2022-07-06T08:37:27;22.80;99.90
29341;DHT22;16337;59.536;13.468;2022-07-06T08:39:53;23.00;99.90
29341;DHT22;16337;59.536;13.468;2022-07-06T08:42:19;22.80;99.90
29341;DHT22;16337;59.536;13.468;2022-07-06T08:44:46;22.90;99.90
29341;DHT22;16337;59.536;13.468;2022-07-06T08:47:12;23.00;99.90
29341;DHT22;16337;59.536;13.468;2022-07-06T08:49:39;22.90;99.90
29341;DHT22;16337;59.536;13.468;2022-07-06T08:52:06;22.90;99.90
29341;DHT22;16337;59.536;13.468;2022-07-06T08:54:33;23.00;99.90
29341;DHT22;16337;59.536;13.468;2022-07-06T08:56:59;22.90;99.90
29341;DHT22;16337;59.536;13.468;2022-07-06T08:59:27;23.00;99.90
29341;DHT22;16337;59.536;13.468;2022-07-06T09:01:53;22.90;99.90
29341;DHT22;16337;59.536;13.468;2022-07-06T09:04:22;22.90;99.10
29341;DHT22;16337;59.536;13.468;2022-07-06T09:06:47;23.10;99.90
29341;DHT22;16337;59.536;13.468;2022-07-06T09:09:19;22.70;99.90
29341;DHT22;16337;59.536;13.468;2022-07-06T09:11:46;23.10;99.90
29341;DHT22;16337;59.536;13.468;2022-07-06T09:14:12;23.10;99.90
29341;DHT22;16337;59.536;13.468;2022-07-06T09:16:37;23.20;98.40
29341;DHT22;16337;59.536;13.468;2022-07-06T09:19:03;23.50;99.30
29341;DHT22;16337;59.536;13.468;2022-07-06T09:21:31;23.70;99.40
29341;DHT22;16337;59.536;13.468;2022-07-06T09:24:00;23.80;97.60
29341;DHT22;16337;59.536;13.468;2022-07-06T09:26:27;24.00;97.70
29341;DHT22;16337;59.536;13.468;2022-07-06T09:28:56;24.20;98.30
29341;DHT22;16337;59.536;13.468;2022-07-06T09:31:22;24.60;95.60
29341;DHT22;16337;59.536;13.468;2022-07-06T09:34:02;24.10;94.90
29341;DHT22;16337;59.536;13.468;2022-07-06T09:36:56;24.20;96.10
29341;DHT22;16337;59.536;13.468;2022-07-06T09:39:24;24.10;96.30
29341;DHT22;16337;59.536;13.468;2022-07-06T09:41:52;24.10;95.70
29341;DHT22;16337;59.536;13.468;2022-07-06T09:44:39;24.00;96.20
29341;DHT22;16337;59.536;13.468;2022-07-06T09:47:10;24.20;96.00
29341;DHT22;16337;59.536;13.468;2022-07-06T09:49:38;24.40;98.10
29341;DHT22;16337;59.536;13.468;2022-07-06T09:52:06;24.50;93.60
29341;DHT22;16337;59.536;13.468;2022-07-06T09:54:33;24.20;95.90
29341;DHT22;16337;59.536;13.468;2022-07-06T09:57:00;24.40;96.20
29341;DHT22;16337;59.536;13.468;2022-07-06T09:59:29;24.60;96.60
29341;DHT22;16337;59.536;13.468;2022-07-06T10:01:59;24.50;97.00
29341;DHT22;16337;59.536;13.468;2022-07-06T10:04:26;24.20;92.10
29341;DHT22;16337;59.536;13.468;2022-07-06T10:06:52;23.90;93.80
29341;DHT22;16337;59.536;13.468;2022-07-06T10:09:20;24.30;95.50
29341;DHT22;16337;59.536;13.468;2022-07-06T10:11:59;24.90;93.60
29341;DHT22;16337;59.536;13.468;2022-07-06T10:14:30;24.80;91.80
29341;DHT22;16337;59.536;13.468;2022-07-06T10:16:57;25.00;93.50
29341;DHT22;16337;59.536;13.468;2022-07-06T10:19:24;25.20;93.30
29341;DHT22;16337;59.536;13.468;2022-07-06T10:21:50;25.10;91.30
29341;DHT22;16337;59.536;13.468;2022-07-06T10:24:18;25.40;93.30
29341;DHT22;16337;59.536;13.468;2022-07-06T10:26:45;25.80;92.90
29341;DHT22;16337;59.536;13.468;2022-07-06T10:29:11;25.70;90.80
29341;DHT22;16337;59.536;13.468;2022-07-06T10:31:40;25.90;91.50
29341;DHT22;16337;59.536;13.468;2022-07-06T10:34:11;26.00;90.50
29341;DHT22;16337;59.536;13.468;2022-07-06T10:36:39;25.90;90.40
29341;DHT22;16337;59.536;13.468;2022-07-06T10:39:06;25.40;91.30
29341;DHT22;16337;59.536;13.468;2022-07-06T10:41:50;25.60;89.00
29341;DHT22;16337;59.536;13.468;2022-07-06T10:44:17;25.70;88.10
29341;DHT22;16337;59.536;13.468;2022-07-06T10:46:59;25.80;88.40
29341;DHT22;16337;59.536;13.468;2022-07-06T10:49:26;25.80;90.40
29341;DHT22;16337;59.536;13.468;2022-07-06T10:51:52;26.70;87.20
29341;DHT22;16337;59.536;13.468;2022-07-06T10:54:19;26.60;85.90
29341;DHT22;16337;59.536;13.468;2022-07-06T10:56:50;26.60;91.70
29341;DHT22;16337;59.536;13.468;2022-07-06T10:59:17;27.20;85.50
29341;DHT22;16337;59.536;13.468;2022-07-06T11:02:17;27.30;84.00
29341;DHT22;16337;59.536;13.468;2022-07-06T11:04:46;27.90;88.30
29341;DHT22;16337;59.536;13.468;2022-07-06T11:07:17;28.00;83.10
29341;DHT22;16337;59.536;13.468;2022-07-06T11:09:59;27.30;81.60
29341;DHT22;16337;59.536;13.468;2022-07-06T11:12:26;26.60;83.10
29341;DHT22;16337;59.536;13.468;2022-07-06T11:14:52;26.40;81.80
29341;DHT22;16337;59.536;13.468;2022-07-06T11:17:19;26.60;78.30
29341;DHT22;16337;59.536;13.468;2022-07-06T11:19:50;26.10;81.50
29341;DHT22;16337;59.536;13.468;2022-07-06T11:22:17;26.00;81.50
29341;DHT22;16337;59.536;13.468;2022-07-06T11:24:44;26.30;76.30
29341;DHT22;16337;59.536;13.468;2022-07-06T11:27:10;26.10;76.80
29341;DHT22;16337;59.536;13.468;2022-07-06T11:29:36;25.50;74.60
29341;DHT22;16337;59.536;13.468;2022-07-06T11:32:05;25.80;79.70
29341;DHT22;16337;59.536;13.468;2022-07-06T11:34:35;25.80;75.80
29341;DHT22;16337;59.536;13.468;2022-07-06T11:37:06;25.90;76.40
29341;DHT22;16337;59.536;13.468;2022-07-06T11:39:37;25.60;76.90
29341;DHT22;16337;59.536;13.468;2022-07-06T11:42:08;25.30;76.30
29341;DHT22;16337;59.536;13.468;2022-07-06T11:44:36;25.30;76.20
29341;DHT22;16337;59.536;13.468;2022-07-06T11:47:02;25.10;77.30
29341;DHT22;16337;59.536;13.468;2022-07-06T11:49:29;25.20;78.50
29341;DHT22;16337;59.536;13.468;2022-07-06T11:51:56;25.60;75.10
29341;DHT22;16337;59.536;13.468;2022-07-06T11:54:23;25.50;78.10
29341;DHT22;16337;59.536;13.468;2022-07-06T11:56:57;25.60;77.30
29341;DHT22;16337;59.536;13.468;2022-07-06T11:59:28;25.50;75.00
29341;DHT22;16337;59.536;13.468;2022-07-06T12:02:09;25.50;74.60
29341;DHT22;16337;59.536;13.468;2022-07-06T12:04:37;25.80;73.60
29341;DHT22;16337;59.536;13.468;2022-07-06T12:07:08;25.60;72.70
29341;DHT22;16337;59.536;13.468;2022-07-06T12:09:35;26.00;73.50
29341;DHT22;16337;59.536;13.468;2022-07-06T12:12:02;26.00;69.10
29341;DHT22;16337;59.536;13.468;2022-07-06T12:14:32;25.60;75.30
29341;DHT22;16337;59.536;13.468;2022-07-06T12:17:06;26.20;77.00
29341;DHT22;16337;59.536;13.468;2022-07-06T12:19:33;26.40;73.20
29341;DHT22;16337;59.536;13.468;2022-07-06T12:21:59;26.80;68.50
29341;DHT22;16337;59.536;13.468;2022-07-06T12:24:28;27.00;73.50
29341;DHT22;16337;59.536;13.468;2022-07-06T12:26:56;27.20;71.10
29341;DHT22;16337;59.536;13.468;2022-07-06T12:29:22;27.10;74.90
29341;DHT22;16337;59.536;13.468;2022-07-06T12:31:50;27.20;73.20
29341;DHT22;16337;59.536;13.468;2022-07-06T12:36:47;28.00;71.60
29341;DHT22;16337;59.536;13.468;2022-07-06T12:39:15;28.00;68.20
29341;DHT22;16337;59.536;13.468;2022-07-06T12:44:25;27.20;72.50
29341;DHT22;16337;59.536;13.468;2022-07-06T12:47:05;27.00;71.20
29341;DHT22;16337;59.536;13.468;2022-07-06T12:49:32;26.50;72.20
29341;DHT22;16337;59.536;13.468;2022-07-06T12:54:34;26.50;72.70
29341;DHT22;16337;59.536;13.468;2022-07-06T12:57:18;26.70;70.30
29341;DHT22;16337;59.536;13.468;2022-07-06T12:59:55;26.60;71.50
29341;DHT22;16337;59.536;13.468;2022-07-06T13:02:22;27.10;67.40
29341;DHT22;16337;59.536;13.468;2022-07-06T13:05:18;27.30;71.80
29341;DHT22;16337;59.536;13.468;2022-07-06T13:07:45;27.70;71.10
29341;DHT22;16337;59.536;13.468;2022-07-06T13:10:13;27.30;68.00
29341;DHT22;16337;59.536;13.468;2022-07-06T13:12:39;26.90;65.90
29341;DHT22;16337;59.536;13.468;2022-07-06T13:15:06;26.50;66.20
29341;DHT22;16337;59.536;13.468;2022-07-06T13:17:32;26.40;65.00
29341;DHT22;16337;59.536;13.468;2022-07-06T13:19:58;26.10;65.80
29341;DHT22;16337;59.536;13.468;2022-07-06T13:22:24;25.90;68.20
29341;DHT22;16337;59.536;13.468;2022-07-06T13:24:49;25.70;67.50
29341;DHT22;16337;59.536;13.468;2022-07-06T13:27:15;25.50;68.90
29341;DHT22;16337;59.536;13.468;2022-07-06T13:29:41;25.30;69.60
29341;DHT22;16337;59.536;13.468;2022-07-06T13:32:07;25.50;70.10
29341;DHT22;16337;59.536;13.468;2022-07-06T13:34:34;25.70;67.80
29341;DHT22;16337;59.536;13.468;2022-07-06T13:37:03;26.00;68.00
29341;DHT22;16337;59.536;13.468;2022-07-06T13:39:29;25.80;67.50
29341;DHT22;16337;59.536;13.468;2022-07-06T13:41:55;26.00;67.40
29341;DHT22;16337;59.536;13.468;2022-07-06T13:44:21;26.00;68.50
29341;DHT22;16337;59.536;13.468;2022-07-06T13:46:47;26.00;64.80
29341;DHT22;16337;59.536;13.468;2022-07-06T13:49:12;25.80;68.30
29341;DHT22;16337;59.536;13.468;2022-07-06T13:51:38;26.10;67.10
29341;DHT22;16337;59.536;13.468;2022-07-06T13:54:04;26.00;68.00
29341;DHT22;16337;59.536;13.468;2022-07-06T13:56:30;26.30;69.80
29341;DHT22;16337;59.536;13.468;2022-07-06T13:58:56;26.70;64.80
29341;DHT22;16337;59.536;13.468;2022-07-06T14:01:22;26.70;67.70
29341;DHT22;16337;59.536;13.468;2022-07-06T14:03:48;26.60;64.30
29341;DHT22;16337;59.536;13.468;2022-07-06T14:06:13;26.40;66.40
29341;DHT22;16337;59.536;13.468;2022-07-06T14:08:40;26.00;65.60
29341;DHT22;16337;59.536;13.468;2022-07-06T14:11:07;25.90;68.20
29341;DHT22;16337;59.536;13.468;2022-07-06T14:13:33;26.00;69.70
29341;DHT22;16337;59.536;13.468;2022-07-06T14:16:00;26.10;69.20
29341;DHT22;16337;59.536;13.468;2022-07-06T14:18:26;26.10;68.90
29341;DHT22;16337;59.536;13.468;2022-07-06T14:20:52;26.10;67.90
29341;DHT22;16337;59.536;13.468;2022-07-06T14:23:19;26.20;69.40
29341;DHT22;16337;59.536;13.468;2022-07-06T14:25:45;26.20;66.60
29341;DHT22;16337;59.536;13.468;2022-07-06T14:28:12;26.20;69.30
29341;DHT22;16337;59.536;13.468;2022-07-06T14:30:42;26.70;71.50
29341;DHT22;16337;59.536;13.468;2022-07-06T14:33:11;26.30;69.80
29341;DHT22;16337;59.536;13.468;2022-07-06T14:35:39;26.60;66.50
29341;DHT22;16337;59.536;13.468;2022-07-06T14:38:05;26.50;67.20
29341;DHT22;16337;59.536;13.468;2022-07-06T14:40:32;26.10;67.20
29341;DHT22;16337;59.536;13.468;2022-07-06T14:42:59;26.00;66.80
29341;DHT22;16337;59.536;13.468;2022-07-06T14:45:25;26.10;68.90
29341;DHT22;16337;59.536;13.468;2022-07-06T14:47:50;26.20;69.80
29341;DHT22;16337;59.536;13.468;2022-07-06T14:50:16;26.70;70.50
29341;DHT22;16337;59.536;13.468;2022-07-06T14:52:42;26.80;66.50
29341;DHT22;16337;59.536;13.468;2022-07-06T14:55:08;26.90;67.90
29341;DHT22;16337;59.536;13.468;2022-07-06T14:57:34;27.00;70.20
29341;DHT22;16337;59.536;13.468;2022-07-06T15:00:00;26.80;65.70
29341;DHT22;16337;59.536;13.468;2022-07-06T15:02:25;25.90;65.20
29341;DHT22;16337;59.536;13.468;2022-07-06T15:04:51;25.50;69.00
29341;DHT22;16337;59.536;13.468;2022-07-06T15:07:17;26.00;70.30
29341;DHT22;16337;59.536;13.468;2022-07-06T15:09:42;26.50;71.20
29341;DHT22;16337;59.536;13.468;2022-07-06T15:12:09;27.10;69.70
29341;DHT22;16337;59.536;13.468;2022-07-06T15:14:35;27.70;65.90
29341;DHT22;16337;59.536;13.468;2022-07-06T15:17:01;27.10;64.40
29341;DHT22;16337;59.536;13.468;2022-07-06T15:19:27;26.90;67.30
29341;DHT22;16337;59.536;13.468;2022-07-06T15:21:53;26.10;67.80